Medi Baltimore — ICLW — position and weather

sailwx.info

Track history (hours):
 
Tides and Currents Weather Stations Pressure Air Temp Water Temp Dewpoint Dewpoint Depression Visibility Wind Speed Wind Dir Waves Ship Positions

Medi Baltimore

Last reported at 2017-Jun-12 02:31 UTC. Time now 2017-Jun-24 13:56 UTC.
Position N 25°29' W 079°31'.
Warning: this ship's position is 12 days out of date.

Length 225 m; draft 8.3 m.

Type: Cargo ship. MMSI: 247255300.

Date/timePositionNaut miles runAvg speedWind from/ knotsBaromVisibWave heightAir tempDewpointWater temp
2017-Jun-12 02:31N 25°29' W 079°31'110.7
2017-Jun-12 02:26N 25°30' W 079°31'510.6
2017-Jun-12 01:59N 25°34' W 079°30'510.5
2017-Jun-12 01:30N 25°39' W 079°30'510.3
2017-Jun-12 01:00N 25°45' W 079°29'510.2
2017-Jun-12 00:30N 25°50' W 079°29'510.1
2017-Jun-12 00:00N 25°55' W 079°28'510.1
2017-Jun-11 23:30N 25°60' W 079°27'510.0
2017-Jun-11 23:00N 26°03' W 079°23'611.1
2017-Jun-11 22:26N 26°07' W 079°18'511.0
2017-Jun-11 22:00N 26°10' W 079°13'611.8
2017-Jun-11 21:30N 26°14' W 079°09'1312.5
2017-Jun-11 20:26N 26°22' W 078°57'1110.0
2017-Jun-11 19:19N 26°29' W 078°47'2 5.2
2017-Jun-11 19:00N 26°28' W 078°46'611.4
2017-Jun-11 18:28N 26°25' W 078°40'713.1
2017-Jun-11 17:58N 26°22' W 078°33'  
2017-Jun-02 16:47N 38°49' W 030°38'511.8
2017-Jun-02 16:21N 38°51' W 030°32'511.9
2017-Jun-02 15:55N 38°53' W 030°26'512.2
2017-Jun-02 15:30N 38°55' W 030°20'612.1
2017-Jun-02 15:00N 38°58' W 030°13'611.9
2017-Jun-02 14:30N 39°00' W 030°06'1111.4
2017-Jun-02 13:30N 39°01' W 029°51'612.3
2017-Jun-02 13:00N 39°03' W 029°43'612.2
2017-Jun-02 12:31N 39°05' W 029°36'612.2
2017-Jun-02 12:00N 39°08' W 029°29'612.2
2017-Jun-02 11:30N 39°10' W 029°21'612.1
2017-Jun-02 11:01N 39°13' W 029°15'612.0
2017-Jun-02 10:30N 39°16' W 029°08'612.2
2017-Jun-02 10:00N 39°18' W 029°01'510.7
2017-Jun-02 09:31N 39°17' W 028°54'611.8
2017-Jun-02 09:00N 39°19' W 028°47'611.8
2017-Jun-02 08:30N 39°22' W 028°40'611.9
2017-Jun-02 08:01N 39°24' W 028°33'611.5
2017-Jun-02 07:30N 39°26' W 028°26'611.2
2017-Jun-02 07:00N 39°24' W 028°20'611.8
2017-Jun-02 06:31N 39°26' W 028°12'611.7
2017-Jun-02 06:00N 39°28' W 028°05'611.4
2017-Jun-02 05:30N 39°30' W 027°58'611.5
2017-Jun-02 05:00N 39°32' W 027°51'611.3
2017-Jun-02 04:30N 39°33' W 027°44'611.4
2017-Jun-02 04:00N 39°35' W 027°37'611.5
2017-Jun-02 03:27N 39°36' W 027°29'  
Track history (hours):
 
Tides and Currents Weather Stations Pressure Air Temp Water Temp Dewpoint Dewpoint Depression Visibility Wind Speed Wind Dir Waves Ship Positions

Medi Baltimore

Last reported at 2017-Jun-12 02:31 UTC. Time now 2017-Jun-24 13:56 UTC.
Position N 25°29' W 079°31'.
Warning: this ship's position is 12 days out of date.

Length 225 m; draft 8.3 m.

Type: Cargo ship. MMSI: 247255300.

Date/timePositionNaut miles runAvg speedWind from/ knotsBaromVisibWave heightAir tempDewpointWater temp
2017-Jun-12 02:31N 25°29' W 079°31'110.7
2017-Jun-12 02:26N 25°30' W 079°31'510.6
2017-Jun-12 01:59N 25°34' W 079°30'510.5
2017-Jun-12 01:30N 25°39' W 079°30'510.3
2017-Jun-12 01:00N 25°45' W 079°29'510.2
2017-Jun-12 00:30N 25°50' W 079°29'510.1
2017-Jun-12 00:00N 25°55' W 079°28'510.1
2017-Jun-11 23:30N 25°60' W 079°27'510.0
2017-Jun-11 23:00N 26°03' W 079°23'611.1
2017-Jun-11 22:26N 26°07' W 079°18'511.0
2017-Jun-11 22:00N 26°10' W 079°13'611.8
2017-Jun-11 21:30N 26°14' W 079°09'1312.5
2017-Jun-11 20:26N 26°22' W 078°57'1110.0
2017-Jun-11 19:19N 26°29' W 078°47'2 5.2
2017-Jun-11 19:00N 26°28' W 078°46'611.4
2017-Jun-11 18:28N 26°25' W 078°40'713.1
2017-Jun-11 17:58N 26°22' W 078°33'  
2017-Jun-02 16:47N 38°49' W 030°38'511.8
2017-Jun-02 16:21N 38°51' W 030°32'511.9
2017-Jun-02 15:55N 38°53' W 030°26'512.2
2017-Jun-02 15:30N 38°55' W 030°20'612.1
2017-Jun-02 15:00N 38°58' W 030°13'611.9
2017-Jun-02 14:30N 39°00' W 030°06'1111.4
2017-Jun-02 13:30N 39°01' W 029°51'612.3
2017-Jun-02 13:00N 39°03' W 029°43'612.2
2017-Jun-02 12:31N 39°05' W 029°36'612.2
2017-Jun-02 12:00N 39°08' W 029°29'612.2
2017-Jun-02 11:30N 39°10' W 029°21'612.1
2017-Jun-02 11:01N 39°13' W 029°15'612.0
2017-Jun-02 10:30N 39°16' W 029°08'612.2
2017-Jun-02 10:00N 39°18' W 029°01'510.7
2017-Jun-02 09:31N 39°17' W 028°54'611.8
2017-Jun-02 09:00N 39°19' W 028°47'611.8
2017-Jun-02 08:30N 39°22' W 028°40'611.9
2017-Jun-02 08:01N 39°24' W 028°33'611.5
2017-Jun-02 07:30N 39°26' W 028°26'611.2
2017-Jun-02 07:00N 39°24' W 028°20'611.8
2017-Jun-02 06:31N 39°26' W 028°12'611.7
2017-Jun-02 06:00N 39°28' W 028°05'611.4
2017-Jun-02 05:30N 39°30' W 027°58'611.5
2017-Jun-02 05:00N 39°32' W 027°51'611.3
2017-Jun-02 04:30N 39°33' W 027°44'611.4
2017-Jun-02 04:00N 39°35' W 027°37'611.5
2017-Jun-02 03:27N 39°36' W 027°29'  

Dump ship's entire track history